Time,TemperatureF,DewpointF,PressureIn,WindDirection,WindDirectionDegrees,WindSpeedMPH,WindSpeedGustMPH,Humidity,HourlyPrecipIn,Conditions,Clouds,dailyrainin,SoftwareType,DateUTC
2013-04-12 00:00:00,62.3,56.7,29.54,SSW,202,8.0,26.0,82,0.00,,SKC,0.00,VWS V14.01,2013-04-12 04:00:00,
2013-04-12 00:15:00,60.2,58.5,29.55,SSW,202,8.0,19.0,94,0.11,,SKC,0.11,VWS V14.01,2013-04-12 04:15:00,
2013-04-12 00:30:00,59.6,58.8,29.53,SW,225,7.0,19.0,97,0.19,,SKC,0.19,VWS V14.01,2013-04-12 04:30:00,
2013-04-12 00:45:00,59.8,59.5,29.52,SW,225,7.0,19.0,99,0.20,,SKC,0.20,VWS V14.01,2013-04-12 04:45:00,
2013-04-12 01:00:00,59.9,59.9,29.51,SSW,202,9.0,23.0,100,0.20,,SKC,0.20,VWS V14.01,2013-04-12 05:00:00,
2013-04-12 01:15:00,59.9,59.9,29.49,SSW,202,8.0,19.0,100,0.20,,SKC,0.20,VWS V14.01,2013-04-12 05:15:00,
2013-04-12 01:30:00,60.1,60.1,29.49,SSW,202,8.0,19.0,100,0.09,,SKC,0.20,VWS V14.01,2013-04-12 05:30:00,
2013-04-12 01:45:00,60.1,60.1,29.48,SW,225,5.0,14.0,100,0.02,,SKC,0.21,VWS V14.01,2013-04-12 05:45:00,
2013-04-12 02:00:00,60.1,60.1,29.47,SW,225,5.0,14.0,100,0.08,,SKC,0.28,VWS V14.01,2013-04-12 06:00:00,
2013-04-12 02:15:00,60.2,60.2,29.46,SSW,202,9.0,28.0,100,0.09,,SKC,0.29,VWS V14.01,2013-04-12 06:15:00,
2013-04-12 02:30:00,60.1,60.1,29.44,SSW,202,9.0,26.0,100,0.09,,SKC,0.29,VWS V14.01,2013-04-12 06:30:00,
2013-04-12 02:45:00,60.1,60.1,29.44,SSW,202,7.0,20.0,100,0.13,,SKC,0.33,VWS V14.01,2013-04-12 06:45:00,
2013-04-12 03:00:00,60.1,60.1,29.43,SSW,202,7.0,18.0,100,0.16,,SKC,0.37,VWS V14.01,2013-04-12 07:00:00,
2013-04-12 03:15:00,60.1,60.1,29.45,SSW,202,11.0,30.0,100,0.12,,SKC,0.40,VWS V14.01,2013-04-12 07:15:00,
2013-04-12 03:30:00,55.4,55.1,29.47,SSW,202,14.0,34.0,99,0.38,,SKC,0.67,VWS V14.01,2013-04-12 07:30:00,
2013-04-12 03:45:00,54.4,54.1,29.46,SSW,202,15.0,39.0,99,0.55,,SKC,0.84,VWS V14.01,2013-04-12 07:45:00,
2013-04-12 04:00:00,54.1,54.1,29.48,SSW,202,14.0,29.0,100,0.63,,SKC,0.96,VWS V14.01,2013-04-12 08:00:00,
2013-04-12 04:15:00,53.9,53.9,29.48,SSW,202,12.0,31.0,100,0.76,,SKC,1.13,VWS V14.01,2013-04-12 08:15:00,
2013-04-12 04:30:00,53.8,53.8,29.45,SSW,202,11.0,34.0,100,0.83,,SKC,1.23,VWS V14.01,2013-04-12 08:30:00,
2013-04-12 04:45:00,53.8,53.8,29.43,SSW,202,14.0,29.0,100,0.60,,SKC,1.27,VWS V14.01,2013-04-12 08:45:00,
2013-04-12 05:00:00,53.9,53.6,29.44,SSW,202,13.0,28.0,99,0.45,,SKC,1.29,VWS V14.01,2013-04-12 09:00:00,
2013-04-12 05:15:00,54.2,53.4,29.43,SSW,202,11.0,23.0,97,0.34,,SKC,1.30,VWS V14.01,2013-04-12 09:15:00,
2013-04-12 05:30:00,54.7,53.0,29.45,SSW,202,9.0,19.0,94,0.17,,SKC,1.30,VWS V14.01,2013-04-12 09:30:00,
2013-04-12 05:45:00,55.4,52.8,29.45,SSW,202,9.0,22.0,91,0.07,,SKC,1.30,VWS V14.01,2013-04-12 09:45:00,
2013-04-12 06:00:00,55.9,53.0,29.46,SSW,202,7.0,20.0,90,0.03,,SKC,1.30,VWS V14.01,2013-04-12 10:00:00,
2013-04-12 06:15:00,55.6,53.3,29.45,SSW,202,9.0,28.0,92,0.02,,SKC,1.31,VWS V14.01,2013-04-12 10:15:00,
2013-04-12 06:30:00,55.6,53.3,29.45,SSW,202,9.0,21.0,92,0.01,,SKC,1.31,VWS V14.01,2013-04-12 10:30:00,
2013-04-12 06:50:00,56.0,54.0,29.45,WSW,240,4.0,14.0,93,0.01,,SKC,1.31,VWS V14.01,2013-04-12 10:50:00,
2013-04-12 06:56:00,56.2,53.9,29.45,SSW,202,11.0,18.0,92,0.01,,SKC,1.31,VWS V14.01,2013-04-12 10:56:00,
2013-04-12 07:02:00,56.5,54.5,29.45,SSW,203,9.0,26.0,93,0.01,,SKC,1.31,VWS V14.01,2013-04-12 11:02:00,
2013-04-12 07:08:00,56.5,54.5,29.45,South,185,5.0,26.0,93,0.01,,SKC,1.31,VWS V14.01,2013-04-12 11:08:00,
2013-04-12 07:14:00,56.9,54.9,29.45,South,177,22.0,28.0,93,0.01,,SKC,1.31,VWS V14.01,2013-04-12 11:14:00,
2013-04-12 07:21:00,57.0,54.7,29.44,SSW,195,14.0,26.0,92,0.00,,SKC,1.31,VWS V14.01,2013-04-12 11:21:00,
2013-04-12 07:27:00,57.0,55.0,29.44,SW,229,23.0,26.0,93,0.00,,SKC,1.31,VWS V14.01,2013-04-12 11:27:00,
2013-04-12 07:33:00,57.0,55.3,29.45,SSW,207,14.0,19.0,94,0.00,,SKC,1.31,VWS V14.01,2013-04-12 11:33:00,
2013-04-12 07:39:00,57.0,55.3,29.45,SSW,200,15.0,19.0,94,0.00,,SKC,1.31,VWS V14.01,2013-04-12 11:39:00,
2013-04-12 07:45:00,56.9,55.5,29.45,SSW,203,9.0,26.0,95,0.00,,SKC,1.31,VWS V14.01,2013-04-12 11:45:00,
2013-04-12 07:54:00,56.9,55.8,29.45,WSW,239,7.0,16.0,96,0.01,,SKC,1.32,VWS V14.01,2013-04-12 11:54:00,
2013-04-12 08:00:00,56.9,55.8,29.45,SSW,199,6.0,22.0,96,0.01,,SKC,1.32,VWS V14.01,2013-04-12 12:00:00,
2013-04-12 08:06:00,57.0,55.9,29.45,WSW,248,15.0,21.0,96,0.01,,SKC,1.32,VWS V14.01,2013-04-12 12:06:00,
2013-04-12 08:12:00,57.2,56.1,29.45,SSW,211,7.0,21.0,96,0.01,,SKC,1.32,VWS V14.01,2013-04-12 12:12:00,
2013-04-12 08:18:00,57.2,56.1,29.46,SW,224,9.0,11.0,96,0.01,,SKC,1.32,VWS V14.01,2013-04-12 12:18:00,
2013-04-12 08:24:00,57.2,56.1,29.46,SSW,192,6.0,21.0,96,0.01,,SKC,1.32,VWS V14.01,2013-04-12 12:24:00,
2013-04-12 08:30:00,57.2,56.1,29.46,WSW,249,7.0,21.0,96,0.01,,SKC,1.32,VWS V14.01,2013-04-12 12:30:00,
2013-04-12 08:36:00,57.5,56.1,29.46,SSW,206,7.0,20.0,95,0.01,,SKC,1.32,VWS V14.01,2013-04-12 12:36:00,
2013-04-12 08:42:00,57.6,56.2,29.46,SSW,210,9.0,20.0,95,0.01,,SKC,1.32,VWS V14.01,2013-04-12 12:42:00,
2013-04-12 08:48:00,57.8,56.4,29.46,SW,217,9.0,14.0,95,0.01,,SKC,1.32,VWS V14.01,2013-04-12 12:48:00,
2013-04-12 08:54:00,58.0,56.6,29.46,SW,229,7.0,14.0,95,0.01,,SKC,1.32,VWS V14.01,2013-04-12 12:54:00,
2013-04-12 09:01:00,58.1,56.7,29.47,SSW,196,6.0,14.0,95,0.01,,SKC,1.32,VWS V14.01,2013-04-12 13:01:00,
2013-04-12 09:07:00,58.0,56.3,29.47,SW,219,6.0,14.0,94,0.00,,SKC,1.32,VWS V14.01,2013-04-12 13:07:00,
2013-04-12 09:13:00,58.1,56.4,29.47,SSW,209,18.0,18.0,94,0.00,,SKC,1.32,VWS V14.01,2013-04-12 13:13:00,
2013-04-12 09:19:00,58.1,56.4,29.47,SW,215,3.0,13.0,94,0.00,,SKC,1.32,VWS V14.01,2013-04-12 13:19:00,
2013-04-12 09:25:00,58.0,56.3,29.47,SSW,210,10.0,19.0,94,0.00,,SKC,1.32,VWS V14.01,2013-04-12 13:25:00,
2013-04-12 09:31:00,58.0,56.3,29.47,SSW,197,3.0,19.0,94,0.00,,SKC,1.32,VWS V14.01,2013-04-12 13:31:00,
2013-04-12 09:37:00,57.8,56.4,29.47,SW,216,5.0,14.0,95,0.00,,SKC,1.32,VWS V14.01,2013-04-12 13:37:00,
2013-04-12 09:43:00,57.6,56.5,29.47,SSW,205,12.0,14.0,96,0.00,,SKC,1.32,VWS V14.01,2013-04-12 13:43:00,
2013-04-12 09:49:00,57.8,56.7,29.47,SW,214,17.0,22.0,96,0.01,,SKC,1.33,VWS V14.01,2013-04-12 13:49:00,
2013-04-12 09:55:00,57.2,55.8,29.47,SW,219,5.0,27.0,95,0.03,,SKC,1.35,VWS V14.01,2013-04-12 13:55:00,
2013-04-12 10:01:00,56.9,55.8,29.48,SSW,206,12.0,15.0,96,0.03,,SKC,1.35,VWS V14.01,2013-04-12 14:01:00,
2013-04-12 10:07:00,56.6,55.5,29.48,SW,214,4.0,23.0,96,0.04,,SKC,1.36,VWS V14.01,2013-04-12 14:07:00,
2013-04-12 10:13:00,57.2,56.1,29.48,SSW,195,13.0,23.0,96,0.04,,SKC,1.36,VWS V14.01,2013-04-12 14:13:00,
2013-04-12 10:19:00,57.6,55.6,29.48,WSW,244,16.0,26.0,93,0.04,,SKC,1.36,VWS V14.01,2013-04-12 14:19:00,
2013-04-12 10:26:00,57.8,55.5,29.48,SSW,193,20.0,26.0,92,0.04,,SKC,1.36,VWS V14.01,2013-04-12 14:26:00,
2013-04-12 10:32:00,58.4,56.1,29.49,SSW,200,10.0,15.0,92,0.04,,SKC,1.36,VWS V14.01,2013-04-12 14:32:00,
2013-04-12 10:38:00,59.0,55.5,29.49,South,188,9.0,28.0,88,0.04,,SKC,1.36,VWS V14.01,2013-04-12 14:38:00,
2013-04-12 10:44:00,59.0,55.1,29.49,SSW,206,10.0,28.0,87,0.04,,SKC,1.36,VWS V14.01,2013-04-12 14:44:00,
2013-04-12 10:50:00,59.3,55.4,29.49,SW,226,3.0,24.0,87,0.04,,SKC,1.36,VWS V14.01,2013-04-12 14:50:00,
2013-04-12 10:56:00,59.5,55.6,29.49,SW,220,12.0,25.0,87,0.04,,SKC,1.36,VWS V14.01,2013-04-12 14:56:00,
2013-04-12 11:02:00,59.0,54.8,29.50,SW,234,22.0,22.0,86,0.01,,SKC,1.36,VWS V14.01,2013-04-12 15:02:00,
2013-04-12 11:08:00,59.0,54.5,29.50,South,174,12.0,24.0,85,0.01,,SKC,1.36,VWS V14.01,2013-04-12 15:08:00,
2013-04-12 11:14:00,58.9,54.7,29.50,SSW,208,10.0,28.0,86,0.01,,SKC,1.36,VWS V14.01,2013-04-12 15:14:00,
2013-04-12 11:20:00,58.6,55.1,29.52,SSW,213,11.0,18.0,88,0.00,,SKC,1.36,VWS V14.01,2013-04-12 15:20:00,
2013-04-12 11:26:00,58.9,54.4,29.52,SW,217,5.0,18.0,85,0.00,,SKC,1.36,VWS V14.01,2013-04-12 15:26:00,
2013-04-12 11:32:00,59.9,56.0,29.51,WSW,248,12.0,14.0,87,0.00,,SKC,1.36,VWS V14.01,2013-04-12 15:32:00,
2013-04-12 11:38:00,60.1,54.9,29.51,SW,229,5.0,19.0,83,0.00,,SKC,1.36,VWS V14.01,2013-04-12 15:38:00,
2013-04-12 11:44:00,60.7,55.5,29.51,WSW,252,0.0,22.0,83,0.00,,SKC,1.36,VWS V14.01,2013-04-12 15:44:00,
2013-04-12 11:50:00,60.9,55.4,29.51,SSW,195,3.0,13.0,82,0.00,,SKC,1.36,VWS V14.01,2013-04-12 15:50:00,
2013-04-12 11:56:00,59.8,54.6,29.51,West,259,12.0,14.0,83,0.00,,SKC,1.36,VWS V14.01,2013-04-12 15:56:00,
2013-04-12 12:02:00,59.2,54.4,29.53,SSW,211,1.0,10.0,84,0.00,,SKC,1.36,VWS V14.01,2013-04-12 16:02:00,
2013-04-12 12:08:00,58.9,54.1,29.53,SW,214,2.0,14.0,84,0.00,,SKC,1.36,VWS V14.01,2013-04-12 16:08:00,
2013-04-12 12:15:00,59.0,54.2,29.52,SSW,205,6.0,14.0,84,0.00,,SKC,1.36,VWS V14.01,2013-04-12 16:15:00,
2013-04-12 12:21:00,59.0,54.5,29.52,SSE,163,0.0,14.0,85,0.00,,SKC,1.36,VWS V14.01,2013-04-12 16:21:00,
2013-04-12 12:27:00,59.6,54.8,29.52,South,190,4.0,14.0,84,0.00,,SKC,1.36,VWS V14.01,2013-04-12 16:27:00,
2013-04-12 12:33:00,59.8,54.6,29.53,SSW,212,7.0,10.0,83,0.00,,SKC,1.36,VWS V14.01,2013-04-12 16:33:00,
2013-04-12 12:39:00,58.7,54.2,29.53,SSW,200,3.0,11.0,85,0.00,,SKC,1.36,VWS V14.01,2013-04-12 16:39:00,
2013-04-12 12:45:00,58.6,54.8,29.53,SSW,195,9.0,11.0,87,0.00,,SKC,1.36,VWS V14.01,2013-04-12 16:45:00,
2013-04-12 12:51:00,58.3,53.5,29.53,SSW,193,9.0,14.0,84,0.00,,SKC,1.36,VWS V14.01,2013-04-12 16:51:00,
2013-04-12 12:57:00,58.9,53.8,29.53,SSW,212,11.0,16.0,83,0.00,,SKC,1.36,VWS V14.01,2013-04-12 16:57:00,
2013-04-12 13:03:00,59.2,53.0,29.52,SSW,195,11.0,19.0,80,0.00,,SKC,1.36,VWS V14.01,2013-04-12 17:03:00,
2013-04-12 13:10:00,59.8,53.3,29.52,SSW,210,10.0,19.0,79,0.00,,SKC,1.36,VWS V14.01,2013-04-12 17:10:00,
2013-04-12 13:16:00,60.5,53.3,29.51,SW,236,14.0,24.0,77,0.00,,SKC,1.36,VWS V14.01,2013-04-12 17:16:00,
2013-04-12 13:22:00,61.3,54.7,29.51,SSW,205,7.0,18.0,79,0.00,,SKC,1.36,VWS V14.01,2013-04-12 17:22:00,
2013-04-12 13:28:00,62.4,52.9,29.51,SW,224,6.0,21.0,71,0.00,,SKC,1.36,VWS V14.01,2013-04-12 17:28:00,
2013-04-12 13:34:00,62.3,52.4,29.50,SSW,203,11.0,15.0,70,0.00,,SKC,1.36,VWS V14.01,2013-04-12 17:34:00,
2013-04-12 13:40:00,61.3,52.2,29.50,SW,215,4.0,18.0,72,0.00,,SKC,1.36,VWS V14.01,2013-04-12 17:40:00,
2013-04-12 13:46:00,62.6,51.9,29.50,SSW,204,4.0,18.0,68,0.00,,SKC,1.36,VWS V14.01,2013-04-12 17:46:00,
2013-04-12 13:52:00,63.5,51.1,29.50,SSW,199,9.0,17.0,64,0.00,,SKC,1.36,VWS V14.01,2013-04-12 17:52:00,
2013-04-12 14:01:00,62.9,49.7,29.50,SW,216,7.0,18.0,62,0.00,,SKC,1.36,VWS V14.01,2013-04-12 18:01:00,
2013-04-12 14:08:00,62.6,49.8,29.50,WSW,248,7.0,19.0,63,0.00,,SKC,1.36,VWS V14.01,2013-04-12 18:08:00,
2013-04-12 14:14:00,63.5,50.3,29.50,WSW,240,7.0,19.0,62,0.00,,SKC,1.36,VWS V14.01,2013-04-12 18:14:00,
2013-04-12 14:20:00,64.2,49.1,29.49,WSW,258,5.0,21.0,58,0.00,,SKC,1.36,VWS V14.01,2013-04-12 18:20:00,